createdAt,value
2023-03-25T00:01:33.683Z,8.00
2023-03-25T00:04:01.551Z,8.00
2023-03-25T00:06:28.471Z,8.00
2023-03-25T00:08:55.777Z,8.00
2023-03-25T00:11:23.151Z,8.00
2023-03-25T00:13:50.460Z,7.90
2023-03-25T00:16:19.208Z,7.90
2023-03-25T00:18:48.027Z,7.90
2023-03-25T00:21:14.971Z,7.90
2023-03-25T00:23:42.335Z,7.90
2023-03-25T00:26:09.470Z,7.90
2023-03-25T00:28:37.616Z,7.90
2023-03-25T00:31:09.377Z,7.90
2023-03-25T00:33:36.563Z,7.90
2023-03-25T00:36:04.921Z,7.90
2023-03-25T00:38:34.315Z,7.90
2023-03-25T00:41:13.483Z,7.80
2023-03-25T00:43:41.046Z,7.80
2023-03-25T00:46:08.130Z,7.80
2023-03-25T00:48:35.260Z,7.80
2023-03-25T00:51:07.418Z,7.80
2023-03-25T00:53:35.369Z,7.80
2023-03-25T00:56:02.710Z,7.80
2023-03-25T00:58:29.875Z,7.70
2023-03-25T01:00:57.742Z,7.70
2023-03-25T01:03:25.211Z,7.70
2023-03-25T01:05:54.804Z,7.70
2023-03-25T01:08:25.812Z,7.70
2023-03-25T01:10:54.483Z,7.70
2023-03-25T01:13:22.292Z,7.60
2023-03-25T01:15:50.859Z,7.60
2023-03-25T01:18:18.049Z,7.60
2023-03-25T01:20:44.921Z,7.60
2023-03-25T01:23:11.873Z,7.60
2023-03-25T01:25:38.797Z,7.60
2023-03-25T01:28:06.265Z,7.60
2023-03-25T01:30:33.275Z,7.60
2023-03-25T01:33:00.389Z,7.60
2023-03-25T01:35:27.658Z,7.60
2023-03-25T01:37:54.778Z,7.60
2023-03-25T01:40:23.638Z,7.60
2023-03-25T01:42:51.014Z,7.60
2023-03-25T01:45:22.780Z,7.50
2023-03-25T01:47:52.960Z,7.60
2023-03-25T01:50:21.250Z,7.50
2023-03-25T01:52:51.011Z,7.50
2023-03-25T01:55:24.159Z,7.60
2023-03-25T01:57:54.444Z,7.50
2023-03-25T02:00:21.475Z,7.50
2023-03-25T02:02:48.865Z,7.60
2023-03-25T02:05:21.757Z,7.60
2023-03-25T02:07:49.546Z,7.60
2023-03-25T02:10:17.672Z,7.50
2023-03-25T02:12:45.991Z,7.60
2023-03-25T02:15:14.892Z,7.50
2023-03-25T02:18:01.474Z,7.60
2023-03-25T02:20:37.579Z,7.60
2023-03-25T02:23:10.213Z,7.50
2023-03-25T02:25:39.864Z,7.60
2023-03-25T02:28:29.268Z,7.50
2023-03-25T02:30:56.261Z,7.50
2023-03-25T02:33:23.146Z,7.60
2023-03-25T02:36:08.605Z,7.50
2023-03-25T02:38:36.887Z,7.50
2023-03-25T02:41:11.850Z,7.60
2023-03-25T02:43:41.723Z,7.60
2023-03-25T02:46:12.165Z,7.60
2023-03-25T02:48:51.305Z,7.60
2023-03-25T02:51:22.132Z,7.60
2023-03-25T02:53:51.228Z,7.60
2023-03-25T02:56:22.404Z,7.60
2023-03-25T02:58:51.521Z,7.60
2023-03-25T03:01:19.386Z,7.70
2023-03-25T03:03:46.390Z,7.70
2023-03-25T03:06:16.124Z,7.60
2023-03-25T03:08:49.049Z,7.70
2023-03-25T03:11:15.937Z,7.60
2023-03-25T03:13:59.487Z,7.60
2023-03-25T03:16:31.069Z,7.60
2023-03-25T03:19:05.490Z,7.70
2023-03-25T03:21:46.430Z,7.60
2023-03-25T03:24:17.528Z,7.70
2023-03-25T03:26:49.802Z,7.70
2023-03-25T03:29:18.352Z,7.60
2023-03-25T03:32:21.069Z,7.70
2023-03-25T03:34:48.023Z,7.70
2023-03-25T03:37:26.458Z,7.70
2023-03-25T03:39:55.007Z,7.70
2023-03-25T03:42:25.205Z,7.70
2023-03-25T03:44:56.491Z,7.70
2023-03-25T03:47:29.941Z,7.70
2023-03-25T03:49:59.544Z,7.70
2023-03-25T03:52:45.309Z,7.70
2023-03-25T03:55:23.194Z,7.70
2023-03-25T03:58:16.417Z,7.70
2023-03-25T04:01:03.569Z,7.60
2023-03-25T04:03:35.103Z,7.60
2023-03-25T04:06:08.052Z,7.70
2023-03-25T04:08:38.571Z,7.70
2023-03-25T04:11:09.737Z,7.70
2023-03-25T04:13:38.161Z,7.60
2023-03-25T04:16:05.998Z,7.70
2023-03-25T04:18:33.917Z,7.70
2023-03-25T04:21:01.179Z,7.70
2023-03-25T04:23:30.766Z,7.70
2023-03-25T04:25:58.142Z,7.70
2023-03-25T04:28:25.939Z,7.70
2023-03-25T04:30:56.980Z,7.70
2023-03-25T04:33:24.081Z,7.70
2023-03-25T04:35:51.554Z,7.70
2023-03-25T04:38:19.245Z,7.70
2023-03-25T04:40:46.926Z,7.70
2023-03-25T04:43:14.634Z,7.70
2023-03-25T04:45:49.720Z,7.70
2023-03-25T04:48:26.062Z,7.70
2023-03-25T04:50:53.104Z,7.70
2023-03-25T04:53:20.016Z,7.70
2023-03-25T04:55:49.765Z,7.70
2023-03-25T04:58:16.981Z,7.60
2023-03-25T05:00:50.224Z,7.60
2023-03-25T05:03:17.739Z,7.60
2023-03-25T05:05:44.630Z,7.60
2023-03-25T05:08:11.604Z,7.60
2023-03-25T05:10:38.948Z,7.60
2023-03-25T05:13:07.445Z,7.60
2023-03-25T05:15:39.374Z,7.60
2023-03-25T05:18:10.278Z,7.60
2023-03-25T05:20:39.992Z,7.60
2023-03-25T05:23:12.400Z,7.60
2023-03-25T05:25:40.310Z,7.60
2023-03-25T05:28:09.826Z,7.60
2023-03-25T05:30:39.406Z,7.60
2023-03-25T05:33:06.571Z,7.60
2023-03-25T05:35:33.583Z,7.60
2023-03-25T05:38:00.578Z,7.60
2023-03-25T05:40:27.744Z,7.60
2023-03-25T05:42:55.143Z,7.60
2023-03-25T05:45:22.508Z,7.60
2023-03-25T05:47:49.619Z,7.50
2023-03-25T05:50:16.900Z,7.50
2023-03-25T05:52:43.836Z,7.60
2023-03-25T05:55:12.362Z,7.60
2023-03-25T05:57:39.382Z,7.60
2023-03-25T06:00:08.448Z,7.60
2023-03-25T06:02:39.204Z,7.60
2023-03-25T06:05:06.404Z,7.60
2023-03-25T06:07:33.329Z,7.60
2023-03-25T06:10:00.257Z,7.60
2023-03-25T06:12:27.675Z,7.60
2023-03-25T06:14:55.062Z,7.60
2023-03-25T06:17:24.932Z,7.60
2023-03-25T06:19:52.225Z,7.60
2023-03-25T06:22:22.186Z,7.60
2023-03-25T06:24:49.155Z,7.60
2023-03-25T06:27:17.659Z,7.60
2023-03-25T06:29:44.851Z,7.60
2023-03-25T06:32:14.469Z,7.70
2023-03-25T06:34:42.977Z,7.70
2023-03-25T06:37:10.519Z,7.70
2023-03-25T06:39:38.038Z,7.70
2023-03-25T06:42:12.803Z,7.70
2023-03-25T06:44:55.836Z,7.70
2023-03-25T06:47:42.298Z,7.70
2023-03-25T06:50:09.524Z,7.70
2023-03-25T06:52:36.416Z,7.80
2023-03-25T06:55:03.646Z,7.80
2023-03-25T06:57:30.674Z,7.70
2023-03-25T06:59:57.547Z,7.80
2023-03-25T07:02:24.493Z,7.80
2023-03-25T07:04:51.674Z,7.80
2023-03-25T07:07:18.709Z,7.80
2023-03-25T07:09:45.622Z,7.80
2023-03-25T07:12:12.523Z,7.80
2023-03-25T07:14:39.495Z,7.80
2023-03-25T07:17:06.485Z,7.90
2023-03-25T07:19:33.372Z,7.90
2023-03-25T07:22:00.296Z,7.90
2023-03-25T07:24:27.239Z,7.90
2023-03-25T07:26:54.117Z,7.90
2023-03-25T07:29:25.813Z,7.90
2023-03-25T07:31:52.805Z,8.00
2023-03-25T07:34:19.699Z,8.00
2023-03-25T07:36:46.631Z,8.00
2023-03-25T07:39:13.575Z,8.00
2023-03-25T07:41:40.570Z,8.00
2023-03-25T07:44:21.600Z,8.00
2023-03-25T07:46:50.319Z,8.10
2023-03-25T07:49:17.442Z,8.10
2023-03-25T07:51:44.562Z,8.10
2023-03-25T07:54:11.733Z,8.10
2023-03-25T07:56:38.880Z,8.10
2023-03-25T07:59:05.956Z,8.20
2023-03-25T08:01:33.005Z,8.20
2023-03-25T08:03:59.997Z,8.20
2023-03-25T08:06:27.304Z,8.20
2023-03-25T08:08:55.740Z,8.30
2023-03-25T08:11:22.669Z,8.30
2023-03-25T08:13:49.589Z,8.40
2023-03-25T08:16:16.626Z,8.40
2023-03-25T08:18:45.416Z,8.50
2023-03-25T08:21:13.107Z,8.50
2023-03-25T08:23:41.113Z,8.50
2023-03-25T08:26:08.266Z,8.60
2023-03-25T08:28:35.353Z,8.60
2023-03-25T08:31:05.853Z,8.70
2023-03-25T08:33:34.479Z,8.80
2023-03-25T08:36:01.899Z,8.80
2023-03-25T08:38:34.889Z,8.90
2023-03-25T08:41:02.604Z,8.90
2023-03-25T08:43:29.522Z,9.00
2023-03-25T08:45:56.457Z,9.10
2023-03-25T08:48:24.598Z,9.10
2023-03-25T08:50:51.532Z,9.20
2023-03-25T08:53:18.497Z,9.30
2023-03-25T08:55:45.825Z,9.40
2023-03-25T08:58:12.720Z,9.40
2023-03-25T09:00:39.576Z,9.50
2023-03-25T09:03:07.630Z,9.70
2023-03-25T09:05:37.055Z,9.90
2023-03-25T09:08:04.099Z,10.10
2023-03-25T09:10:31.252Z,10.40
2023-03-25T09:12:58.170Z,10.60
2023-03-25T09:15:25.076Z,10.80
2023-03-25T09:17:52.014Z,11.00
2023-03-25T09:20:19.287Z,11.00
2023-03-25T09:22:46.166Z,11.00
2023-03-25T09:25:14.182Z,11.00
2023-03-25T09:27:41.137Z,10.80
2023-03-25T09:30:08.478Z,10.70
2023-03-25T09:32:35.628Z,10.60
2023-03-25T09:35:02.546Z,10.50
2023-03-25T09:37:29.621Z,10.40
2023-03-25T09:39:57.459Z,10.30
2023-03-25T09:42:43.030Z,10.40
2023-03-25T09:45:12.352Z,10.70
2023-03-25T09:47:40.478Z,11.10
2023-03-25T09:50:11.926Z,11.40
2023-03-25T09:52:59.146Z,11.70
2023-03-25T09:55:28.262Z,12.00
2023-03-25T09:57:57.789Z,12.20
2023-03-25T10:00:25.956Z,12.20
2023-03-25T10:03:29.060Z,12.40
2023-03-25T10:06:11.156Z,12.70
2023-03-25T10:08:44.698Z,13.10
2023-03-25T10:11:35.061Z,13.60
2023-03-25T10:14:02.106Z,14.10
2023-03-25T10:16:35.404Z,14.60
2023-03-25T10:19:02.404Z,15.10
2023-03-25T10:21:49.885Z,15.50
2023-03-25T10:24:26.036Z,15.70
2023-03-25T10:26:54.936Z,15.90
2023-03-25T10:29:26.404Z,16.30
2023-03-25T10:31:54.715Z,16.70
2023-03-25T10:34:26.831Z,16.80
2023-03-25T10:36:58.134Z,17.20
2023-03-25T10:39:34.051Z,17.50
2023-03-25T10:42:03.684Z,17.60
2023-03-25T10:44:31.127Z,17.60
2023-03-25T10:47:00.984Z,17.60
2023-03-25T10:49:30.597Z,17.60
2023-03-25T10:51:59.580Z,17.50
2023-03-25T10:54:31.878Z,17.60
2023-03-25T10:57:00.455Z,17.60
2023-03-25T10:59:36.080Z,17.70
2023-03-25T11:02:23.063Z,17.80
2023-03-25T11:04:52.356Z,17.90
2023-03-25T11:07:19.433Z,18.10
2023-03-25T11:09:46.746Z,18.20
2023-03-25T11:12:17.770Z,18.20
2023-03-25T11:14:44.644Z,18.20
2023-03-25T11:17:18.595Z,18.20
2023-03-25T11:19:45.466Z,17.90
2023-03-25T11:22:19.617Z,17.50
2023-03-25T11:24:49.121Z,17.20
2023-03-25T11:27:21.736Z,16.70
2023-03-25T11:30:01.294Z,16.50
2023-03-25T11:32:36.033Z,16.00
2023-03-25T11:35:07.271Z,15.70
2023-03-25T11:37:37.432Z,15.40
2023-03-25T11:40:06.648Z,15.20
2023-03-25T11:42:42.981Z,15.10
2023-03-25T11:45:19.196Z,15.00
2023-03-25T11:47:46.384Z,14.90
2023-03-25T11:50:23.907Z,14.90
2023-03-25T11:52:53.788Z,14.80
2023-03-25T11:55:20.775Z,14.90
2023-03-25T11:57:49.178Z,15.10
2023-03-25T12:00:26.135Z,15.20
2023-03-25T12:03:03.275Z,15.20
2023-03-25T12:05:31.557Z,15.30
2023-03-25T12:08:31.259Z,15.40
2023-03-25T12:11:01.623Z,15.40
2023-03-25T12:13:51.976Z,15.50
2023-03-25T12:16:21.921Z,15.70
2023-03-25T12:18:57.850Z,16.00
2023-03-25T12:21:48.126Z,16.20
2023-03-25T12:24:18.064Z,16.30
2023-03-25T12:26:45.080Z,16.40
2023-03-25T12:29:31.071Z,16.40
2023-03-25T12:32:24.495Z,16.50
2023-03-25T12:34:51.402Z,16.70
2023-03-25T12:37:24.979Z,16.90
2023-03-25T12:40:11.325Z,17.00
2023-03-25T12:42:44.917Z,17.20
2023-03-25T12:45:17.980Z,17.00
2023-03-25T12:47:53.962Z,17.00
2023-03-25T12:50:26.579Z,17.00
2023-03-25T12:52:53.702Z,17.00
2023-03-25T12:55:20.665Z,16.80
2023-03-25T12:57:59.859Z,16.70
2023-03-25T13:00:37.386Z,16.50
2023-03-25T13:03:07.397Z,16.30
2023-03-25T13:05:52.733Z,16.10
2023-03-25T13:08:22.732Z,15.90
2023-03-25T13:10:55.380Z,15.80
2023-03-25T13:13:25.810Z,15.80
2023-03-25T13:16:02.058Z,15.70
2023-03-25T13:18:49.248Z,15.70
2023-03-25T13:21:37.832Z,15.70
2023-03-25T13:24:07.301Z,15.80
2023-03-25T13:26:35.419Z,15.80
2023-03-25T13:29:05.537Z,15.90
2023-03-25T13:31:35.600Z,15.80
2023-03-25T13:34:23.123Z,15.70
2023-03-25T13:37:29.336Z,15.70
2023-03-25T13:40:14.847Z,15.60
2023-03-25T13:42:58.230Z,15.50
2023-03-25T13:45:26.613Z,15.30
2023-03-25T13:48:02.087Z,15.20
2023-03-25T13:50:30.542Z,15.10
2023-03-25T13:53:16.366Z,15.00
2023-03-25T13:55:46.370Z,14.90
2023-03-25T13:58:19.097Z,14.80
2023-03-25T14:00:49.249Z,14.70
2023-03-25T14:03:31.599Z,14.60
2023-03-25T14:05:58.609Z,14.50
2023-03-25T14:08:31.929Z,14.40
2023-03-25T14:11:01.960Z,14.30
2023-03-25T14:13:35.518Z,14.30
2023-03-25T14:16:12.755Z,14.30
2023-03-25T14:18:50.786Z,14.30
2023-03-25T14:21:21.141Z,14.40
2023-03-25T14:23:48.653Z,14.50
2023-03-25T14:26:18.341Z,14.50
2023-03-25T14:28:46.173Z,14.40
2023-03-25T14:31:17.050Z,14.40
2023-03-25T14:34:02.632Z,14.30
2023-03-25T14:36:30.769Z,14.30
2023-03-25T14:38:58.452Z,14.30
2023-03-25T14:41:44.708Z,14.20
2023-03-25T14:44:20.819Z,14.10
2023-03-25T14:46:47.765Z,14.10
2023-03-25T14:49:18.283Z,14.00
2023-03-25T14:51:46.261Z,14.10
2023-03-25T14:54:31.974Z,14.10
2023-03-25T14:57:06.741Z,14.10
2023-03-25T14:59:37.315Z,14.10
2023-03-25T15:02:09.500Z,14.10
2023-03-25T15:04:38.147Z,14.00
2023-03-25T15:07:09.118Z,14.00
2023-03-25T15:09:44.624Z,13.90
2023-03-25T15:12:14.825Z,13.90
2023-03-25T15:14:42.723Z,13.80
2023-03-25T15:17:13.486Z,13.70
2023-03-25T15:19:58.626Z,13.60
2023-03-25T15:22:25.642Z,13.50
2023-03-25T15:24:57.031Z,13.40
2023-03-25T15:27:23.884Z,13.30
2023-03-25T15:29:57.013Z,13.20
2023-03-25T15:32:24.049Z,13.10
2023-03-25T15:35:00.271Z,13.10
2023-03-25T15:37:46.823Z,13.00
2023-03-25T15:40:22.577Z,12.90
2023-03-25T15:42:52.906Z,12.90
2023-03-25T15:45:22.925Z,12.90
2023-03-25T15:48:08.315Z,12.90
2023-03-25T15:50:43.443Z,12.90
2023-03-25T15:53:42.046Z,12.80
2023-03-25T15:56:18.133Z,12.90
2023-03-25T15:59:08.365Z,12.90
2023-03-25T16:01:37.513Z,12.80
2023-03-25T16:04:19.771Z,12.80
2023-03-25T16:06:48.648Z,12.80
2023-03-25T16:09:19.323Z,12.80
2023-03-25T16:11:46.786Z,12.80
2023-03-25T16:14:13.711Z,12.80
2023-03-25T16:16:44.454Z,12.70
2023-03-25T16:19:20.074Z,12.80
2023-03-25T16:21:51.715Z,12.80
2023-03-25T16:24:20.760Z,12.70
2023-03-25T16:26:48.692Z,12.70
2023-03-25T16:29:17.822Z,12.70
2023-03-25T16:31:56.542Z,12.60
2023-03-25T16:34:23.886Z,12.60
2023-03-25T16:36:52.074Z,12.60
2023-03-25T16:39:19.710Z,12.50
2023-03-25T16:41:47.527Z,12.50
2023-03-25T16:44:16.427Z,12.50
2023-03-25T16:46:44.372Z,12.50
2023-03-25T16:49:26.314Z,12.50
2023-03-25T16:51:53.459Z,12.40
2023-03-25T16:54:23.254Z,12.40
2023-03-25T16:56:50.613Z,12.40
2023-03-25T16:59:18.250Z,12.40
2023-03-25T17:01:52.402Z,12.40
2023-03-25T17:04:22.341Z,12.40
2023-03-25T17:06:53.802Z,12.30
2023-03-25T17:09:22.522Z,12.30
2023-03-25T17:11:52.575Z,12.30
2023-03-25T17:14:21.146Z,12.30
2023-03-25T17:16:49.814Z,12.30
2023-03-25T17:19:17.504Z,12.30
2023-03-25T17:22:05.184Z,12.20
2023-03-25T17:24:41.628Z,12.20
2023-03-25T17:27:34.989Z,12.20
2023-03-25T17:30:16.240Z,12.20
2023-03-25T17:32:43.851Z,12.20
2023-03-25T17:35:18.559Z,12.10
2023-03-25T17:37:47.343Z,12.00
2023-03-25T17:40:20.731Z,12.00
2023-03-25T17:42:47.914Z,12.00
2023-03-25T17:45:18.173Z,11.90
2023-03-25T17:47:45.898Z,11.90
2023-03-25T17:50:17.100Z,11.90
2023-03-25T17:52:44.467Z,11.90
2023-03-25T17:55:11.636Z,11.90
2023-03-25T17:57:38.869Z,11.90
2023-03-25T18:00:18.546Z,11.90
2023-03-25T18:02:46.269Z,11.80
2023-03-25T18:05:13.764Z,11.80
2023-03-25T18:07:40.787Z,11.80
2023-03-25T18:10:18.449Z,11.80
2023-03-25T18:12:46.130Z,11.80
2023-03-25T18:15:13.084Z,11.80
2023-03-25T18:17:39.985Z,11.70
2023-03-25T18:20:14.817Z,11.70
2023-03-25T18:22:41.841Z,11.70
2023-03-25T18:25:10.179Z,11.70
2023-03-25T18:27:43.686Z,11.60
2023-03-25T18:30:35.400Z,11.60
2023-03-25T18:33:02.873Z,11.60
2023-03-25T18:35:29.984Z,11.60
2023-03-25T18:37:57.473Z,11.50
2023-03-25T18:40:28.244Z,11.60
2023-03-25T18:42:55.511Z,11.60
2023-03-25T18:45:23.544Z,11.50
2023-03-25T18:47:51.220Z,11.50
2023-03-25T18:50:25.456Z,11.50
2023-03-25T18:52:52.441Z,11.50
2023-03-25T18:55:19.349Z,11.50
2023-03-25T18:57:46.638Z,11.40
2023-03-25T19:00:31.156Z,11.40
2023-03-25T19:03:00.993Z,11.30
2023-03-25T19:05:28.256Z,11.30
2023-03-25T19:07:55.105Z,11.20
2023-03-25T19:10:23.805Z,11.20
2023-03-25T19:12:51.387Z,11.20
2023-03-25T19:15:19.758Z,11.20
2023-03-25T19:17:47.512Z,11.10
2023-03-25T19:20:18.792Z,11.10
2023-03-25T19:22:46.029Z,11.10
2023-03-25T19:25:13.381Z,11.00
2023-03-25T19:27:42.031Z,11.00
2023-03-25T19:30:10.948Z,11.00
2023-03-25T19:32:37.992Z,11.00
2023-03-25T19:35:06.083Z,11.00
2023-03-25T19:37:36.136Z,11.00
2023-03-25T19:40:08.340Z,11.00
2023-03-25T19:42:38.942Z,11.00
2023-03-25T19:45:07.098Z,10.90
2023-03-25T19:47:34.523Z,10.90
2023-03-25T19:50:01.445Z,10.80
2023-03-25T19:52:28.352Z,10.80
2023-03-25T19:54:55.321Z,10.80
2023-03-25T19:57:22.213Z,10.80
2023-03-25T19:59:52.353Z,10.70
2023-03-25T20:02:19.312Z,10.70
2023-03-25T20:04:46.250Z,10.70
2023-03-25T20:07:13.127Z,10.60
2023-03-25T20:09:41.848Z,10.60
2023-03-25T20:12:08.961Z,10.50
2023-03-25T20:14:36.027Z,10.50
2023-03-25T20:17:02.935Z,10.40
2023-03-25T20:19:29.884Z,10.40
2023-03-25T20:21:56.796Z,10.40
2023-03-25T20:24:23.857Z,10.30
2023-03-25T20:26:50.748Z,10.30
2023-03-25T20:29:19.700Z,10.30
2023-03-25T20:31:47.322Z,10.20
2023-03-25T20:34:14.412Z,10.20
2023-03-25T20:36:41.321Z,10.30
2023-03-25T20:39:08.267Z,10.30
2023-03-25T20:41:35.174Z,10.30
2023-03-25T20:44:02.155Z,10.30
2023-03-25T20:46:31.419Z,10.30
2023-03-25T20:48:58.717Z,10.30
2023-03-25T20:51:25.599Z,10.30
2023-03-25T20:53:53.318Z,10.40
2023-03-25T20:56:20.299Z,10.40
2023-03-25T20:58:47.383Z,10.40
2023-03-25T21:01:15.545Z,10.40
2023-03-25T21:03:42.983Z,10.40
2023-03-25T21:06:22.881Z,10.40
2023-03-25T21:08:51.641Z,10.40
2023-03-25T21:11:18.644Z,10.40
2023-03-25T21:13:45.872Z,10.40
2023-03-25T21:16:14.064Z,10.40
2023-03-25T21:18:42.725Z,10.40
2023-03-25T21:21:09.770Z,10.40
2023-03-25T21:23:36.968Z,10.50
2023-03-25T21:26:09.252Z,10.40
2023-03-25T21:28:40.053Z,10.40
2023-03-25T21:31:08.545Z,10.40
2023-03-25T21:33:39.790Z,10.40
2023-03-25T21:36:08.208Z,10.40
2023-03-25T21:38:36.521Z,10.40
2023-03-25T21:41:04.527Z,10.40
2023-03-25T21:43:31.722Z,10.40
2023-03-25T21:45:58.694Z,10.40
2023-03-25T21:48:33.208Z,10.40
2023-03-25T21:51:01.484Z,10.40
2023-03-25T21:53:32.460Z,10.40
2023-03-25T21:56:03.916Z,10.40
2023-03-25T21:58:32.109Z,10.30
2023-03-25T22:01:03.366Z,10.30
2023-03-25T22:03:35.072Z,10.30
2023-03-25T22:06:03.026Z,10.20
2023-03-25T22:08:30.019Z,10.20
2023-03-25T22:11:03.034Z,10.20
2023-03-25T22:13:30.015Z,10.20
2023-03-25T22:15:57.203Z,10.10
2023-03-25T22:18:24.092Z,10.10
2023-03-25T22:20:51.333Z,10.00
2023-03-25T22:23:18.390Z,10.00
2023-03-25T22:25:46.038Z,10.00
2023-03-25T22:28:13.329Z,9.90
2023-03-25T22:30:40.780Z,9.90
2023-03-25T22:33:08.016Z,9.80
2023-03-25T22:35:35.492Z,9.80
2023-03-25T22:38:02.476Z,9.70
2023-03-25T22:40:29.414Z,9.70
2023-03-25T22:42:56.321Z,9.60
2023-03-25T22:45:23.480Z,9.60
2023-03-25T22:47:50.489Z,9.60
2023-03-25T22:50:17.493Z,9.60
2023-03-25T22:52:44.433Z,9.60
2023-03-25T22:55:11.449Z,9.60
2023-03-25T22:57:38.353Z,9.60
2023-03-25T23:00:12.761Z,9.60
2023-03-25T23:02:40.656Z,9.50
2023-03-25T23:05:07.968Z,9.50
2023-03-25T23:07:34.958Z,9.50
2023-03-25T23:10:01.849Z,9.50
2023-03-25T23:12:28.753Z,9.50
2023-03-25T23:14:56.670Z,9.50
2023-03-25T23:17:24.092Z,9.50
2023-03-25T23:19:52.326Z,9.50
2023-03-25T23:22:21.281Z,9.50
2023-03-25T23:24:48.298Z,9.50
2023-03-25T23:27:15.374Z,9.50
2023-03-25T23:29:42.223Z,9.50
2023-03-25T23:32:09.200Z,9.50
2023-03-25T23:34:36.507Z,9.50
2023-03-25T23:37:03.881Z,9.40
2023-03-25T23:39:31.099Z,9.40
2023-03-25T23:41:58.149Z,9.40
2023-03-25T23:44:25.041Z,9.40
2023-03-25T23:46:52.058Z,9.40
2023-03-25T23:49:20.290Z,9.40
2023-03-25T23:51:47.597Z,9.40
2023-03-25T23:54:15.454Z,9.30
2023-03-25T23:56:42.807Z,9.30
2023-03-25T23:59:10.654Z,9.30
